createdAt,value
2018-08-18T00:00:21.267Z,2.60
2018-08-18T00:02:49.805Z,3.15
2018-08-18T00:05:18.542Z,3.37
2018-08-18T00:07:47.582Z,3.07
2018-08-18T00:10:17.864Z,3.00
2018-08-18T00:12:46.227Z,3.10
2018-08-18T00:15:14.543Z,3.10
2018-08-18T00:17:42.819Z,3.10
2018-08-18T00:20:17.128Z,2.97
2018-08-18T00:22:46.283Z,2.70
2018-08-18T00:25:15.251Z,2.33
2018-08-18T00:27:43.900Z,3.03
2018-08-18T00:30:17.382Z,2.73
2018-08-18T00:32:46.106Z,2.43
2018-08-18T00:35:14.723Z,2.80
2018-08-18T00:37:43.464Z,2.60
2018-08-18T00:40:12.456Z,2.70
2018-08-18T00:42:41.296Z,2.90
2018-08-18T00:45:11.133Z,2.70
2018-08-18T00:47:40.140Z,2.50
2018-08-18T00:50:09.369Z,2.93
2018-08-18T00:52:38.132Z,2.53
2018-08-18T00:55:06.719Z,2.60
2018-08-18T00:57:35.159Z,2.30
2018-08-18T01:00:03.600Z,2.50
2018-08-18T01:02:32.248Z,2.33
2018-08-18T01:05:01.517Z,2.60
2018-08-18T01:07:31.007Z,2.20
2018-08-18T01:10:00.134Z,2.80
2018-08-18T01:12:28.947Z,2.63
2018-08-18T01:14:58.213Z,3.15
2018-08-18T01:17:27.044Z,2.57
2018-08-18T01:19:56.898Z,3.73
2018-08-18T01:22:25.564Z,2.70
2018-08-18T01:24:54.485Z,3.20
2018-08-18T01:27:22.930Z,2.57
2018-08-18T01:29:56.607Z,2.50
2018-08-18T01:32:25.149Z,2.60
2018-08-18T01:34:54.320Z,3.10
2018-08-18T01:37:22.667Z,2.77
2018-08-18T01:39:53.037Z,2.87
2018-08-18T01:42:21.708Z,3.00
2018-08-18T01:44:51.908Z,2.67
2018-08-18T01:47:20.647Z,2.50
2018-08-18T01:49:49.227Z,3.60
2018-08-18T01:52:20.463Z,3.07
2018-08-18T01:54:48.995Z,2.90
2018-08-18T01:57:18.423Z,3.60
2018-08-18T01:59:47.339Z,3.60
2018-08-18T02:02:25.207Z,4.00
2018-08-18T02:04:53.945Z,3.93
2018-08-18T02:07:26.996Z,3.57
2018-08-18T02:09:55.794Z,3.27
2018-08-18T02:12:24.879Z,3.72
2018-08-18T02:14:53.583Z,4.00
2018-08-18T02:17:25.932Z,3.87
2018-08-18T02:19:54.437Z,3.70
2018-08-18T02:22:23.811Z,4.40
2018-08-18T02:24:52.412Z,3.43
2018-08-18T02:27:20.699Z,3.80
2018-08-18T02:30:01.224Z,4.00
2018-08-18T02:32:32.306Z,3.73
2018-08-18T02:35:00.993Z,4.57
2018-08-18T02:37:30.263Z,3.80
2018-08-18T02:39:58.714Z,4.37
2018-08-18T02:42:27.555Z,4.10
2018-08-18T02:44:56.304Z,4.47
2018-08-18T02:47:24.699Z,3.97
2018-08-18T02:49:54.324Z,4.90
2018-08-18T02:52:24.111Z,4.90
2018-08-18T02:54:56.003Z,5.00
2018-08-18T02:57:27.509Z,5.03
2018-08-18T02:59:58.415Z,4.70
2018-08-18T03:02:26.705Z,4.80
2018-08-18T03:04:55.386Z,5.25
2018-08-18T03:07:24.128Z,5.07
2018-08-18T03:09:52.584Z,5.70
2018-08-18T03:12:20.928Z,5.43
2018-08-18T03:14:49.193Z,5.17
2018-08-18T03:17:18.451Z,5.60
2018-08-18T03:19:47.093Z,4.90
2018-08-18T03:22:15.723Z,6.00
2018-08-18T03:24:44.140Z,6.10
2018-08-18T03:27:12.730Z,5.87
2018-08-18T03:29:46.658Z,6.63
2018-08-18T03:32:15.043Z,6.37
2018-08-18T03:34:43.444Z,6.80
2018-08-18T03:37:25.173Z,6.07
2018-08-18T03:39:53.826Z,6.80
2018-08-18T03:42:23.373Z,6.60
2018-08-18T03:44:54.619Z,6.40
2018-08-18T03:47:23.007Z,6.70
2018-08-18T03:49:51.332Z,6.37
2018-08-18T03:52:19.671Z,5.70
2018-08-18T03:54:48.104Z,6.90
2018-08-18T03:57:17.983Z,6.10
2018-08-18T03:59:48.835Z,5.83
2018-08-18T04:02:21.547Z,5.97
2018-08-18T04:04:50.456Z,6.73
2018-08-18T04:07:19.961Z,5.87
2018-08-18T04:09:48.220Z,6.70
2018-08-18T04:12:16.525Z,5.80
2018-08-18T04:14:45.123Z,6.40
2018-08-18T04:17:25.027Z,6.07
2018-08-18T04:19:58.029Z,6.33
2018-08-18T04:22:27.952Z,6.67
2018-08-18T04:25:01.467Z,5.70
2018-08-18T04:27:40.735Z,5.70
2018-08-18T04:30:12.520Z,6.50
2018-08-18T04:32:51.059Z,6.72
2018-08-18T04:35:23.280Z,6.42
2018-08-18T04:37:53.612Z,6.23
2018-08-18T04:40:22.975Z,6.40
2018-08-18T04:42:56.224Z,7.30
2018-08-18T04:45:24.758Z,6.55
2018-08-18T04:47:55.261Z,6.70
2018-08-18T04:50:26.138Z,7.20
2018-08-18T04:52:55.511Z,6.77
2018-08-18T04:55:24.707Z,7.63
2018-08-18T04:57:53.736Z,7.03
2018-08-18T05:00:24.704Z,7.60
2018-08-18T05:02:58.751Z,6.37
2018-08-18T05:05:33.927Z,8.80
2018-08-18T05:08:06.907Z,7.67
2018-08-18T05:10:42.607Z,7.63
2018-08-18T05:13:15.928Z,7.67
2018-08-18T05:15:45.821Z,7.95
2018-08-18T05:18:17.575Z,9.27
2018-08-18T05:20:46.944Z,8.70
2018-08-18T05:23:24.188Z,8.33
2018-08-18T05:25:54.004Z,8.07
2018-08-18T05:28:24.186Z,8.48
2018-08-18T05:30:55.125Z,9.83
2018-08-18T05:33:25.199Z,9.23
2018-08-18T05:35:53.585Z,8.40
2018-08-18T05:38:23.460Z,9.20
2018-08-18T05:40:52.756Z,10.50
2018-08-18T05:43:21.206Z,10.30
2018-08-18T05:45:51.128Z,8.93
2018-08-18T05:48:19.696Z,10.17
2018-08-18T05:50:47.979Z,9.80
2018-08-18T05:53:22.539Z,10.40
2018-08-18T05:55:51.109Z,9.87
2018-08-18T05:58:19.657Z,10.10
2018-08-18T06:00:51.028Z,8.70
2018-08-18T06:03:21.561Z,9.40
2018-08-18T06:05:53.497Z,9.95
2018-08-18T06:08:22.752Z,9.23
2018-08-18T06:10:52.429Z,9.20
2018-08-18T06:13:22.368Z,9.10
2018-08-18T06:16:10.809Z,9.00
2018-08-18T06:18:40.556Z,10.10
2018-08-18T06:21:09.110Z,9.00
2018-08-18T06:23:39.067Z,9.63
2018-08-18T06:26:08.435Z,8.73
2018-08-18T06:28:38.032Z,9.50
2018-08-18T06:31:08.336Z,8.53
2018-08-18T06:33:38.781Z,9.40
2018-08-18T06:36:09.127Z,9.17
2018-08-18T06:38:39.044Z,8.93
2018-08-18T06:41:09.486Z,8.97
2018-08-18T06:43:42.013Z,10.13
2018-08-18T06:46:11.264Z,11.00
2018-08-18T06:48:40.460Z,9.60
2018-08-18T06:51:08.892Z,9.60
2018-08-18T06:53:43.875Z,9.93
2018-08-18T06:56:12.808Z,10.70
2018-08-18T06:58:42.216Z,11.73
2018-08-18T07:01:11.127Z,9.55
2018-08-18T07:03:41.411Z,9.47
2018-08-18T07:06:11.632Z,10.23
2018-08-18T07:08:53.200Z,9.25
2018-08-18T07:11:21.876Z,9.18
2018-08-18T07:13:50.557Z,11.53
2018-08-18T07:16:19.445Z,10.57
2018-08-18T07:18:49.992Z,9.33
2018-08-18T07:21:21.531Z,10.10
2018-08-18T07:23:50.039Z,10.10
2018-08-18T07:26:19.955Z,8.90
2018-08-18T07:28:48.491Z,9.77
2018-08-18T07:31:17.075Z,10.03
2018-08-18T07:33:45.545Z,9.63
2018-08-18T07:36:14.070Z,9.43
2018-08-18T07:38:42.663Z,9.40
2018-08-18T07:41:11.826Z,7.97
2018-08-18T07:43:40.473Z,8.00
2018-08-18T07:46:09.123Z,8.10
2018-08-18T07:48:37.451Z,8.53
2018-08-18T07:51:06.460Z,7.77
2018-08-18T07:53:36.682Z,8.63
2018-08-18T07:56:05.282Z,7.57
2018-08-18T07:58:37.088Z,7.08
2018-08-18T08:01:08.055Z,8.33
2018-08-18T08:03:37.001Z,8.80
2018-08-18T08:06:06.279Z,8.50
2018-08-18T08:08:40.228Z,8.20
2018-08-18T08:11:14.395Z,8.97
2018-08-18T08:13:43.058Z,7.53
2018-08-18T08:16:11.351Z,7.90
2018-08-18T08:18:39.670Z,7.37
2018-08-18T08:21:10.402Z,7.27
2018-08-18T08:23:40.306Z,7.90
2018-08-18T08:26:10.533Z,8.40
2018-08-18T08:28:40.003Z,7.03
2018-08-18T08:31:08.328Z,7.90
2018-08-18T08:33:38.727Z,8.10
2018-08-18T08:36:08.643Z,7.50
2018-08-18T08:38:48.233Z,9.37
2018-08-18T08:41:16.571Z,9.40
2018-08-18T08:43:44.924Z,9.30
2018-08-18T08:46:13.588Z,9.67
2018-08-18T08:48:42.024Z,11.10
2018-08-18T08:51:11.046Z,10.57
2018-08-18T08:53:39.383Z,9.67
2018-08-18T08:56:07.801Z,8.10
2018-08-18T08:58:40.958Z,7.53
2018-08-18T09:01:09.261Z,8.60
2018-08-18T09:03:37.959Z,8.60
2018-08-18T09:06:06.365Z,7.80
2018-08-18T09:08:34.719Z,8.07
2018-08-18T09:11:04.307Z,8.60
2018-08-18T09:13:32.640Z,8.70
2018-08-18T09:16:01.051Z,9.00
2018-08-18T09:18:29.756Z,7.50
2018-08-18T09:20:58.329Z,7.93
2018-08-18T09:23:27.023Z,7.00
2018-08-18T09:25:55.495Z,7.40
2018-08-18T09:28:24.250Z,7.50
2018-08-18T09:30:52.796Z,7.97
2018-08-18T09:33:21.092Z,8.00
2018-08-18T09:35:59.132Z,7.23
2018-08-18T09:38:27.503Z,8.67
2018-08-18T09:40:55.832Z,7.43
2018-08-18T09:43:25.472Z,9.88
2018-08-18T09:45:56.263Z,8.50
2018-08-18T09:48:25.753Z,8.30
2018-08-18T09:50:55.728Z,9.10
2018-08-18T09:53:24.676Z,8.68
2018-08-18T09:55:53.224Z,10.07
2018-08-18T09:58:21.821Z,12.13
2018-08-18T10:00:50.169Z,11.07
2018-08-18T10:03:18.503Z,9.83
2018-08-18T10:05:46.846Z,10.90
2018-08-18T10:08:15.852Z,9.90
2018-08-18T10:10:44.529Z,10.00
2018-08-18T10:13:13.246Z,11.73
2018-08-18T10:15:42.165Z,12.67
2018-08-18T10:18:10.634Z,9.20
2018-08-18T10:20:44.744Z,10.43
2018-08-18T10:23:13.608Z,10.50
2018-08-18T10:25:42.254Z,10.73
2018-08-18T10:28:10.592Z,11.03
2018-08-18T10:30:38.923Z,11.63
2018-08-18T10:33:07.611Z,9.80
2018-08-18T10:35:36.256Z,10.53
2018-08-18T10:38:06.109Z,8.77
2018-08-18T10:40:35.995Z,9.60
2018-08-18T10:43:05.045Z,10.30
2018-08-18T10:45:33.411Z,9.30
2018-08-18T10:48:03.868Z,10.67
2018-08-18T10:50:44.224Z,11.03
2018-08-18T10:53:12.832Z,10.50
2018-08-18T10:55:41.137Z,9.50
2018-08-18T10:58:10.278Z,11.00
2018-08-18T11:00:39.089Z,11.33
2018-08-18T11:03:08.491Z,10.60
2018-08-18T11:05:36.780Z,8.60
2018-08-18T11:08:06.077Z,9.70
2018-08-18T11:10:38.606Z,9.87
2018-08-18T11:13:07.211Z,8.17
2018-08-18T11:15:35.504Z,9.20
2018-08-18T11:18:04.128Z,7.58
2018-08-18T11:20:33.752Z,7.43
2018-08-18T11:23:12.100Z,7.60
2018-08-18T11:25:44.543Z,8.70
2018-08-18T11:28:13.533Z,7.90
2018-08-18T11:30:42.003Z,7.70
2018-08-18T11:33:12.536Z,7.53
2018-08-18T11:35:40.808Z,6.90
2018-08-18T11:38:11.999Z,7.60
2018-08-18T11:40:40.591Z,8.08
2018-08-18T11:43:10.688Z,6.95
2018-08-18T11:45:39.862Z,7.57
2018-08-18T11:48:11.173Z,7.93
2018-08-18T11:50:39.808Z,9.10
2018-08-18T11:53:08.219Z,7.47
2018-08-18T11:55:37.247Z,6.60
2018-08-18T11:58:08.126Z,6.70
2018-08-18T12:00:41.976Z,7.43
2018-08-18T12:03:14.997Z,7.17
2018-08-18T12:05:49.473Z,6.03
2018-08-18T12:08:19.947Z,5.10
2018-08-18T12:10:49.294Z,5.30
2018-08-18T12:13:17.907Z,5.10
2018-08-18T12:16:11.200Z,4.23
2018-08-18T12:18:40.979Z,4.27
2018-08-18T12:21:09.589Z,3.90
2018-08-18T12:23:39.370Z,4.27
2018-08-18T12:26:12.196Z,5.17
2018-08-18T12:28:47.744Z,4.47
2018-08-18T12:31:20.442Z,5.07
2018-08-18T12:33:49.084Z,4.80
2018-08-18T12:36:17.466Z,4.73
2018-08-18T12:38:47.776Z,4.23
2018-08-18T12:41:16.716Z,5.23
2018-08-18T12:43:47.495Z,4.97
2018-08-18T12:46:17.747Z,5.30
2018-08-18T12:48:47.927Z,4.33
2018-08-18T12:51:17.444Z,5.03
2018-08-18T12:53:47.010Z,5.17
2018-08-18T12:56:17.299Z,5.53
2018-08-18T12:59:33.592Z,5.90
2018-08-18T13:02:02.711Z,4.83
2018-08-18T13:04:31.584Z,4.87
2018-08-18T13:07:00.435Z,4.97
2018-08-18T13:09:28.732Z,6.13
2018-08-18T13:11:58.272Z,4.30
2018-08-18T13:14:28.577Z,4.83
2018-08-18T13:16:57.547Z,3.58
2018-08-18T13:19:29.820Z,3.87
2018-08-18T13:21:58.681Z,3.52
2018-08-18T13:24:29.979Z,3.58
2018-08-18T13:26:59.685Z,4.40
2018-08-18T13:29:28.001Z,3.30
2018-08-18T13:31:56.548Z,4.60
2018-08-18T13:34:25.308Z,3.55
2018-08-18T13:36:53.718Z,3.57
2018-08-18T13:39:22.025Z,4.00
2018-08-18T13:41:51.035Z,4.25
2018-08-18T13:44:29.290Z,3.63
2018-08-18T13:46:57.566Z,3.30
2018-08-18T13:49:26.806Z,3.37
2018-08-18T13:51:55.228Z,3.50
2018-08-18T13:54:24.103Z,3.72
2018-08-18T13:56:52.677Z,3.83
2018-08-18T13:59:41.720Z,3.33
2018-08-18T14:02:10.542Z,3.50
2018-08-18T14:04:40.931Z,3.90
2018-08-18T14:07:10.515Z,3.53
2018-08-18T14:09:41.199Z,3.93
2018-08-18T14:12:14.715Z,3.30
2018-08-18T14:14:43.791Z,3.37
2018-08-18T14:17:12.594Z,3.77
2018-08-18T14:19:41.035Z,3.60
2018-08-18T14:22:10.180Z,3.30
2018-08-18T14:24:39.530Z,3.80
2018-08-18T14:27:12.813Z,3.08
2018-08-18T14:29:41.808Z,3.35
2018-08-18T14:32:15.756Z,3.40
2018-08-18T14:34:51.314Z,3.40
2018-08-18T14:37:20.567Z,3.37
2018-08-18T14:39:48.886Z,3.20
2018-08-18T14:42:17.431Z,3.47
2018-08-18T14:44:46.026Z,3.17
2018-08-18T14:47:15.400Z,3.10
2018-08-18T14:49:43.676Z,3.00
2018-08-18T14:52:11.993Z,3.77
2018-08-18T14:54:40.291Z,3.02
2018-08-18T14:57:08.759Z,3.83
2018-08-18T14:59:38.197Z,3.67
2018-08-18T15:02:07.915Z,3.10
2018-08-18T15:04:36.412Z,3.43
2018-08-18T15:07:05.001Z,3.77
2018-08-18T15:09:36.955Z,2.97
2018-08-18T15:12:06.108Z,3.67
2018-08-18T15:14:34.659Z,3.57
2018-08-18T15:17:03.332Z,3.35
2018-08-18T15:19:31.927Z,3.83
2018-08-18T15:22:02.945Z,3.40
2018-08-18T15:24:31.607Z,4.10
2018-08-18T15:27:00.092Z,3.20
2018-08-18T15:29:28.379Z,3.83
2018-08-18T15:31:56.972Z,3.85
2018-08-18T15:34:26.216Z,3.90
2018-08-18T15:36:54.492Z,3.60
2018-08-18T15:39:25.083Z,3.20
2018-08-18T15:41:56.386Z,3.37
2018-08-18T15:44:25.284Z,4.15
2018-08-18T15:46:54.409Z,3.63
2018-08-18T15:49:22.735Z,4.07
2018-08-18T15:51:51.549Z,3.97
2018-08-18T15:54:19.862Z,4.47
2018-08-18T15:56:48.511Z,4.20
2018-08-18T15:59:17.381Z,4.03
2018-08-18T16:01:45.936Z,4.50
2018-08-18T16:04:14.770Z,5.73
2018-08-18T16:06:43.650Z,5.08
2018-08-18T16:09:12.214Z,4.47
2018-08-18T16:11:40.515Z,4.70
2018-08-18T16:14:08.831Z,5.80
2018-08-18T16:16:52.728Z,4.60
2018-08-18T16:19:21.424Z,4.77
2018-08-18T16:21:49.706Z,4.40
2018-08-18T16:24:30.348Z,4.70
2018-08-18T16:26:59.424Z,4.80
2018-08-18T16:29:27.886Z,4.97
2018-08-18T16:32:13.923Z,5.37
2018-08-18T16:34:43.356Z,4.27
2018-08-18T16:37:11.638Z,4.50
2018-08-18T16:39:40.552Z,4.70
2018-08-18T16:42:09.088Z,4.90
2018-08-18T16:44:37.470Z,4.30
2018-08-18T16:47:06.395Z,4.47
2018-08-18T16:49:34.936Z,4.42
2018-08-18T16:52:03.244Z,4.80
2018-08-18T16:54:33.166Z,4.20
2018-08-18T16:57:02.251Z,4.77
2018-08-18T16:59:30.757Z,4.80
2018-08-18T17:01:59.047Z,4.90
2018-08-18T17:04:30.686Z,6.23
2018-08-18T17:06:59.466Z,5.53
2018-08-18T17:09:46.588Z,5.30
2018-08-18T17:12:20.971Z,5.90
2018-08-18T17:14:49.459Z,5.80
2018-08-18T17:17:17.749Z,5.50
2018-08-18T17:19:47.199Z,5.40
2018-08-18T17:22:16.123Z,4.90
2018-08-18T17:24:44.528Z,6.47
2018-08-18T17:27:12.851Z,5.20
2018-08-18T17:29:42.598Z,5.90
2018-08-18T17:32:11.327Z,4.97
2018-08-18T17:34:40.089Z,5.05
2018-08-18T17:37:08.395Z,5.30
2018-08-18T17:39:37.081Z,5.50
2018-08-18T17:42:05.743Z,5.23
2018-08-18T17:44:34.154Z,5.80
2018-08-18T17:47:08.651Z,5.33
2018-08-18T17:50:13.552Z,5.93
2018-08-18T17:52:42.195Z,5.70
2018-08-18T17:55:15.152Z,6.20
2018-08-18T17:57:43.760Z,5.50
2018-08-18T18:00:14.239Z,6.23
2018-08-18T18:02:48.220Z,6.40
2018-08-18T18:05:24.265Z,7.17
2018-08-18T18:07:54.792Z,6.33
2018-08-18T18:10:24.312Z,6.27
2018-08-18T18:12:52.677Z,5.40
2018-08-18T18:15:35.344Z,6.10
2018-08-18T18:18:03.980Z,6.03
2018-08-18T18:20:33.948Z,5.70
2018-08-18T18:23:02.590Z,7.13
2018-08-18T18:25:31.244Z,6.23
2018-08-18T18:28:01.306Z,6.10
2018-08-18T18:30:30.083Z,7.22
2018-08-18T18:32:58.553Z,7.50
2018-08-18T18:35:27.244Z,7.10
2018-08-18T18:38:03.243Z,10.00
2018-08-18T18:40:36.933Z,9.00
2018-08-18T18:43:05.524Z,9.10
2018-08-18T18:45:34.163Z,8.08
2018-08-18T18:48:02.584Z,7.00
2018-08-18T18:50:31.232Z,6.90
2018-08-18T18:52:59.795Z,6.97
2018-08-18T18:55:28.594Z,6.60
2018-08-18T18:58:09.989Z,6.33
2018-08-18T19:00:39.488Z,7.80
2018-08-18T19:03:09.473Z,6.10
2018-08-18T19:05:38.085Z,6.80
2018-08-18T19:08:10.152Z,6.87
2018-08-18T19:10:38.901Z,7.40
2018-08-18T19:13:07.807Z,7.43
2018-08-18T19:15:36.183Z,7.40
2018-08-18T19:18:04.744Z,7.67
2018-08-18T19:20:33.015Z,6.77
2018-08-18T19:23:07.905Z,7.47
2018-08-18T19:25:37.288Z,7.30
2018-08-18T19:28:05.561Z,7.60
2018-08-18T19:30:34.576Z,7.73
2018-08-18T19:33:03.452Z,7.33
2018-08-18T19:35:40.359Z,7.65
2018-08-18T19:38:09.128Z,7.37
2018-08-18T19:40:39.049Z,7.17
2018-08-18T19:43:10.335Z,7.00
2018-08-18T19:45:39.015Z,8.20
2018-08-18T19:48:08.448Z,7.35
2018-08-18T19:50:36.804Z,8.77
2018-08-18T19:53:10.567Z,8.90
2018-08-18T19:55:39.035Z,10.63
2018-08-18T19:58:07.339Z,10.30
2018-08-18T20:00:35.852Z,12.57
2018-08-18T20:03:07.480Z,12.13
2018-08-18T20:05:35.753Z,11.60
2018-08-18T20:08:04.106Z,12.70
2018-08-18T20:10:36.033Z,12.50
2018-08-18T20:13:04.416Z,14.00
2018-08-18T20:15:32.684Z,15.20
2018-08-18T20:18:01.246Z,14.47
2018-08-18T20:20:31.419Z,13.10
2018-08-18T20:22:59.691Z,13.40
2018-08-18T20:25:28.335Z,13.50
2018-08-18T20:27:56.786Z,12.33
2018-08-18T20:30:25.156Z,11.07
2018-08-18T20:32:53.792Z,13.13
2018-08-18T20:35:22.138Z,11.40
2018-08-18T20:37:51.013Z,13.00
2018-08-18T20:40:19.727Z,11.80
2018-08-18T20:42:48.617Z,13.43
2018-08-18T20:45:17.176Z,12.15
2018-08-18T20:47:45.578Z,11.97
2018-08-18T20:50:14.270Z,11.50
2018-08-18T20:52:42.813Z,12.93
2018-08-18T20:55:11.122Z,12.17
2018-08-18T20:57:40.185Z,12.60
2018-08-18T21:00:10.265Z,10.13
2018-08-18T21:02:39.120Z,12.00
2018-08-18T21:05:09.471Z,10.90
2018-08-18T21:07:37.811Z,12.30
2018-08-18T21:10:08.640Z,12.07
2018-08-18T21:12:42.697Z,13.07
2018-08-18T21:15:11.688Z,12.40
2018-08-18T21:17:39.964Z,13.30
2018-08-18T21:20:11.028Z,11.80
2018-08-18T21:22:39.314Z,13.40
2018-08-18T21:25:09.087Z,12.10
2018-08-18T21:27:37.397Z,12.80
2018-08-18T21:30:09.432Z,12.13
2018-08-18T21:32:37.731Z,12.60
2018-08-18T21:35:07.170Z,12.40
2018-08-18T21:37:35.470Z,12.40
2018-08-18T21:40:04.373Z,11.73
2018-08-18T21:42:32.655Z,11.57
2018-08-18T21:45:00.931Z,11.77
2018-08-18T21:47:29.513Z,12.00
2018-08-18T21:49:58.132Z,11.80
2018-08-18T21:52:26.506Z,10.80
2018-08-18T21:54:54.951Z,11.60
2018-08-18T21:57:23.925Z,11.80
2018-08-18T21:59:55.612Z,11.97
2018-08-18T22:02:37.456Z,11.97
2018-08-18T22:05:07.531Z,11.45
2018-08-18T22:07:41.167Z,12.97
2018-08-18T22:10:10.340Z,12.90
2018-08-18T22:12:39.506Z,13.07
2018-08-18T22:15:14.367Z,13.00
2018-08-18T22:17:42.688Z,14.10
2018-08-18T22:20:11.260Z,13.38
2018-08-18T22:22:39.863Z,13.28
2018-08-18T22:25:08.465Z,13.90
2018-08-18T22:27:37.553Z,13.93
2018-08-18T22:30:08.095Z,14.20
2018-08-18T22:32:38.991Z,13.87
2018-08-18T22:35:08.524Z,13.23
2018-08-18T22:37:36.839Z,13.90
2018-08-18T22:40:05.759Z,13.97
2018-08-18T22:42:34.443Z,12.80
2018-08-18T22:45:14.220Z,12.57
2018-08-18T22:47:43.435Z,12.90
2018-08-18T22:50:11.696Z,10.93
2018-08-18T22:52:40.212Z,14.07
2018-08-18T22:55:09.140Z,13.97
2018-08-18T22:57:37.447Z,12.13
2018-08-18T23:00:06.407Z,12.20
2018-08-18T23:02:34.976Z,13.40
2018-08-18T23:05:03.368Z,11.97
2018-08-18T23:07:32.124Z,12.30
2018-08-18T23:10:00.501Z,12.93
2018-08-18T23:12:29.040Z,12.45
2018-08-18T23:14:57.965Z,13.17
2018-08-18T23:17:26.579Z,13.35
2018-08-18T23:19:54.903Z,13.57
2018-08-18T23:22:38.271Z,15.30
2018-08-18T23:25:06.972Z,15.35
2018-08-18T23:27:35.240Z,14.37
2018-08-18T23:30:04.929Z,15.00
2018-08-18T23:32:33.459Z,15.30
2018-08-18T23:35:01.736Z,14.30
2018-08-18T23:37:30.603Z,15.08
2018-08-18T23:39:59.358Z,16.20
2018-08-18T23:42:28.284Z,14.10
2018-08-18T23:44:56.594Z,13.20
2018-08-18T23:47:25.102Z,13.97
2018-08-18T23:49:53.993Z,14.35
2018-08-18T23:52:22.313Z,15.53
2018-08-18T23:54:51.523Z,13.75
2018-08-18T23:57:20.459Z,13.25
2018-08-18T23:59:49.946Z,14.33
